createdAt,value
2018-01-30T00:00:06.895Z,56.00
2018-01-30T00:02:33.381Z,56.00
2018-01-30T00:04:59.941Z,56.10
2018-01-30T00:07:26.541Z,56.50
2018-01-30T00:09:53.201Z,56.70
2018-01-30T00:12:19.793Z,56.70
2018-01-30T00:14:46.382Z,56.90
2018-01-30T00:17:12.957Z,57.50
2018-01-30T00:19:39.526Z,57.40
2018-01-30T00:22:06.119Z,57.70
2018-01-30T00:24:32.722Z,57.50
2018-01-30T00:26:59.309Z,57.80
2018-01-30T00:29:25.846Z,57.80
2018-01-30T00:31:52.409Z,57.80
2018-01-30T00:34:19.033Z,57.50
2018-01-30T00:36:46.375Z,57.50
2018-01-30T00:39:12.935Z,57.50
2018-01-30T00:41:39.508Z,57.70
2018-01-30T00:44:06.099Z,57.70
2018-01-30T00:46:32.706Z,57.80
2018-01-30T00:48:59.398Z,57.60
2018-01-30T00:51:25.994Z,57.60
2018-01-30T00:53:52.568Z,57.60
2018-01-30T00:56:19.154Z,57.60
2018-01-30T00:58:45.783Z,57.60
2018-01-30T01:01:12.347Z,57.70
2018-01-30T01:03:39.710Z,57.70
2018-01-30T01:06:06.340Z,57.60
2018-01-30T01:08:33.655Z,57.60
2018-01-30T01:11:00.245Z,57.60
2018-01-30T01:13:26.807Z,57.60
2018-01-30T01:15:53.356Z,57.60
2018-01-30T01:18:19.930Z,57.60
2018-01-30T01:20:46.548Z,57.60
2018-01-30T01:23:13.126Z,57.80
2018-01-30T01:25:39.710Z,57.60
2018-01-30T01:28:06.302Z,57.60
2018-01-30T01:30:32.886Z,57.80
2018-01-30T01:32:59.478Z,58.00
2018-01-30T01:35:26.033Z,57.80
2018-01-30T01:37:52.626Z,57.70
2018-01-30T01:40:19.961Z,58.10
2018-01-30T01:42:46.521Z,58.10
2018-01-30T01:45:13.150Z,58.50
2018-01-30T01:47:39.745Z,58.70
2018-01-30T01:50:06.461Z,58.90
2018-01-30T01:52:33.049Z,58.60
2018-01-30T01:54:59.633Z,58.70
2018-01-30T01:57:26.207Z,59.10
2018-01-30T01:59:53.554Z,59.20
2018-01-30T02:02:20.145Z,59.00
2018-01-30T02:04:46.725Z,59.00
2018-01-30T02:07:13.322Z,58.80
2018-01-30T02:09:39.905Z,58.60
2018-01-30T02:12:06.524Z,59.00
2018-01-30T02:14:33.113Z,59.00
2018-01-30T02:17:00.450Z,59.20
2018-01-30T02:19:27.235Z,59.10
2018-01-30T02:21:53.882Z,59.30
2018-01-30T02:24:20.531Z,59.30
2018-01-30T02:26:47.111Z,59.30
2018-01-30T02:29:13.689Z,59.30
2018-01-30T02:31:40.285Z,59.10
2018-01-30T02:34:06.979Z,59.20
2018-01-30T02:36:33.573Z,59.30
2018-01-30T02:39:00.189Z,59.60
2018-01-30T02:41:27.567Z,59.90
2018-01-30T02:43:54.866Z,59.70
2018-01-30T02:46:21.496Z,59.70
2018-01-30T02:48:48.063Z,60.20
2018-01-30T02:51:14.638Z,61.10
2018-01-30T02:53:41.222Z,60.20
2018-01-30T02:56:07.830Z,60.10
2018-01-30T02:58:34.409Z,60.00
2018-01-30T03:01:01.081Z,59.90
2018-01-30T03:03:27.706Z,59.90
2018-01-30T03:05:54.350Z,60.30
2018-01-30T03:08:21.664Z,59.70
2018-01-30T03:10:48.242Z,59.70
2018-01-30T03:13:14.910Z,60.00
2018-01-30T03:15:41.478Z,60.40
2018-01-30T03:18:08.053Z,60.00
2018-01-30T03:20:35.386Z,58.90
2018-01-30T03:23:02.097Z,58.90
2018-01-30T03:25:28.732Z,59.40
2018-01-30T03:27:55.343Z,59.80
2018-01-30T03:30:21.904Z,59.60
2018-01-30T03:32:48.498Z,59.70
2018-01-30T03:35:15.085Z,59.60
2018-01-30T03:37:41.642Z,59.40
2018-01-30T03:40:08.258Z,59.40
2018-01-30T03:42:34.854Z,59.40
2018-01-30T03:45:01.434Z,59.30
2018-01-30T03:47:28.014Z,59.70
2018-01-30T03:49:54.693Z,59.50
2018-01-30T03:52:21.301Z,59.70
2018-01-30T03:54:47.866Z,59.70
2018-01-30T03:57:14.450Z,59.40
2018-01-30T03:59:41.004Z,59.60
2018-01-30T04:02:07.599Z,59.30
2018-01-30T04:04:34.162Z,59.30
2018-01-30T04:07:01.534Z,59.30
2018-01-30T04:09:28.262Z,59.30
2018-01-30T04:11:54.877Z,59.50
2018-01-30T04:14:21.487Z,59.40
2018-01-30T04:16:48.070Z,59.40
2018-01-30T04:19:15.366Z,59.40
2018-01-30T04:21:41.965Z,59.40
2018-01-30T04:24:09.281Z,59.00
2018-01-30T04:26:35.871Z,59.00
2018-01-30T04:29:02.449Z,58.80
2018-01-30T04:31:29.041Z,58.90
2018-01-30T04:33:55.994Z,59.00
2018-01-30T04:36:22.634Z,59.00
2018-01-30T04:38:49.231Z,58.70
2018-01-30T04:41:16.602Z,59.00
2018-01-30T04:43:43.226Z,59.00
2018-01-30T04:46:09.879Z,59.20
2018-01-30T04:48:36.438Z,59.70
2018-01-30T04:51:03.054Z,60.00
2018-01-30T04:53:30.350Z,60.90
2018-01-30T04:55:57.218Z,60.70
2018-01-30T04:58:23.770Z,61.20
2018-01-30T05:00:50.381Z,61.00
2018-01-30T05:03:17.014Z,60.70
2018-01-30T05:05:43.586Z,60.90
2018-01-30T05:08:10.959Z,60.20
2018-01-30T05:10:37.547Z,60.20
2018-01-30T05:13:04.121Z,60.30
2018-01-30T05:15:31.448Z,60.40
2018-01-30T05:17:58.042Z,60.30
2018-01-30T05:20:24.792Z,60.40
2018-01-30T05:22:51.331Z,60.50
2018-01-30T05:25:17.950Z,60.50
2018-01-30T05:27:44.534Z,60.60
2018-01-30T05:30:11.130Z,61.00
2018-01-30T05:32:37.701Z,61.50
2018-01-30T05:35:04.382Z,60.90
2018-01-30T05:37:30.930Z,60.90
2018-01-30T05:39:58.330Z,60.80
2018-01-30T05:42:25.926Z,60.70
2018-01-30T05:44:52.620Z,61.50
2018-01-30T05:47:19.298Z,60.90
2018-01-30T05:49:45.886Z,60.20
2018-01-30T05:52:12.495Z,60.00
2018-01-30T05:54:39.162Z,60.40
2018-01-30T05:57:06.694Z,60.70
2018-01-30T05:59:34.298Z,60.90
2018-01-30T06:02:01.705Z,60.90
2018-01-30T06:04:28.287Z,60.70
2018-01-30T06:06:55.164Z,61.00
2018-01-30T06:09:21.750Z,61.20
2018-01-30T06:11:48.323Z,61.70
2018-01-30T06:14:15.687Z,62.30
2018-01-30T06:16:42.998Z,62.20
2018-01-30T06:19:09.628Z,62.10
2018-01-30T06:21:36.205Z,62.20
2018-01-30T06:24:03.564Z,60.80
2018-01-30T06:26:30.882Z,61.30
2018-01-30T06:28:57.547Z,61.20
2018-01-30T06:31:24.957Z,61.20
2018-01-30T06:33:51.531Z,61.20
2018-01-30T06:36:18.146Z,61.10
2018-01-30T06:38:44.714Z,61.40
2018-01-30T06:41:12.177Z,61.70
2018-01-30T06:43:38.758Z,61.70
2018-01-30T06:46:05.328Z,62.10
2018-01-30T06:48:31.942Z,61.70
2018-01-30T06:50:58.606Z,62.20
2018-01-30T06:53:25.239Z,62.20
2018-01-30T06:55:51.891Z,62.80
2018-01-30T06:58:18.501Z,64.00
2018-01-30T07:00:45.198Z,64.60
2018-01-30T07:03:11.795Z,64.30
2018-01-30T07:05:38.427Z,64.60
2018-01-30T07:08:05.158Z,64.30
2018-01-30T07:10:31.753Z,64.20
2018-01-30T07:12:58.455Z,63.90
2018-01-30T07:15:25.868Z,65.10
2018-01-30T07:17:52.436Z,65.10
2018-01-30T07:20:19.037Z,65.80
2018-01-30T07:22:45.641Z,65.60
2018-01-30T07:25:12.278Z,65.40
2018-01-30T07:27:39.054Z,65.50
2018-01-30T07:30:06.674Z,66.80
2018-01-30T07:32:33.281Z,66.40
2018-01-30T07:34:59.886Z,66.60
2018-01-30T07:37:26.474Z,66.70
2018-01-30T07:39:53.814Z,66.20
2018-01-30T07:42:20.628Z,66.00
2018-01-30T07:44:48.123Z,66.90
2018-01-30T07:47:14.860Z,66.50
2018-01-30T07:49:42.193Z,66.50
2018-01-30T07:52:08.763Z,66.50
2018-01-30T07:54:35.431Z,67.60
2018-01-30T07:57:02.101Z,67.00
2018-01-30T07:59:28.776Z,67.00
2018-01-30T08:01:55.369Z,67.00
2018-01-30T08:04:22.173Z,67.00
2018-01-30T08:06:48.795Z,66.70
2018-01-30T08:09:16.143Z,65.00
2018-01-30T08:11:42.812Z,65.00
2018-01-30T08:14:09.421Z,65.20
2018-01-30T08:16:36.074Z,65.30
2018-01-30T08:19:02.702Z,65.50
2018-01-30T08:21:29.295Z,65.40
2018-01-30T08:23:57.213Z,65.60
2018-01-30T08:26:23.854Z,67.00
2018-01-30T08:28:50.513Z,66.30
2018-01-30T08:31:17.119Z,66.50
2018-01-30T08:33:43.757Z,66.50
2018-01-30T08:36:10.354Z,66.20
2018-01-30T08:38:36.943Z,65.80
2018-01-30T08:41:03.582Z,65.50
2018-01-30T08:43:30.190Z,65.50
2018-01-30T08:45:56.824Z,65.50
2018-01-30T08:48:23.466Z,65.10
2018-01-30T08:50:50.105Z,65.20
2018-01-30T08:53:16.706Z,64.60
2018-01-30T08:55:44.090Z,65.10
2018-01-30T08:58:10.669Z,65.10
2018-01-30T09:00:37.412Z,65.20
2018-01-30T09:03:03.982Z,65.80
2018-01-30T09:05:30.638Z,65.90
2018-01-30T09:07:57.270Z,65.80
2018-01-30T09:10:23.857Z,65.80
2018-01-30T09:12:50.463Z,65.90
2018-01-30T09:15:17.051Z,66.30
2018-01-30T09:17:43.753Z,66.60
2018-01-30T09:20:10.366Z,66.80
2018-01-30T09:22:36.944Z,66.60
2018-01-30T09:25:03.586Z,66.50
2018-01-30T09:27:30.216Z,65.30
2018-01-30T09:29:56.877Z,64.10
2018-01-30T09:32:23.493Z,58.90
2018-01-30T09:34:50.200Z,52.40
2018-01-30T09:37:17.526Z,52.90
2018-01-30T09:39:44.873Z,54.10
2018-01-30T09:42:11.557Z,54.10
2018-01-30T09:44:38.174Z,55.70
2018-01-30T09:47:05.468Z,57.90
2018-01-30T09:49:32.107Z,57.90
2018-01-30T09:51:58.693Z,58.30
2018-01-30T09:54:25.326Z,60.00
2018-01-30T09:56:51.977Z,59.00
2018-01-30T09:59:18.589Z,59.00
2018-01-30T10:01:45.185Z,59.10
2018-01-30T10:04:11.833Z,59.30
2018-01-30T10:06:38.451Z,58.20
2018-01-30T10:09:05.072Z,57.50
2018-01-30T10:11:31.667Z,58.70
2018-01-30T10:13:58.307Z,58.70
2018-01-30T10:16:24.922Z,59.40
2018-01-30T10:18:51.497Z,59.40
2018-01-30T10:21:18.167Z,58.40
2018-01-30T10:23:44.718Z,57.60
2018-01-30T10:26:11.334Z,56.70
2018-01-30T10:28:38.650Z,55.90
2018-01-30T10:31:05.222Z,55.90
2018-01-30T10:33:31.839Z,55.20
2018-01-30T10:35:58.412Z,55.10
2018-01-30T10:38:25.110Z,50.00
2018-01-30T10:40:51.755Z,43.00
2018-01-30T10:43:18.325Z,40.00
2018-01-30T10:45:44.957Z,40.40
2018-01-30T10:48:11.582Z,40.70
2018-01-30T10:50:38.188Z,37.20
2018-01-30T10:53:04.833Z,37.00
2018-01-30T10:55:31.427Z,36.10
2018-01-30T10:57:58.077Z,37.60
2018-01-30T11:00:24.758Z,36.10
2018-01-30T11:02:52.107Z,38.10
2018-01-30T11:05:18.729Z,38.00
2018-01-30T11:07:45.330Z,38.70
2018-01-30T11:10:12.038Z,39.60
2018-01-30T11:12:39.470Z,41.70
2018-01-30T11:15:06.092Z,41.60
2018-01-30T11:17:32.714Z,42.30
2018-01-30T11:19:59.374Z,43.00
2018-01-30T11:22:25.966Z,43.20
2018-01-30T11:24:52.589Z,41.60
2018-01-30T11:27:19.245Z,41.60
2018-01-30T11:29:45.856Z,41.80
2018-01-30T11:32:12.466Z,39.20
2018-01-30T11:34:39.074Z,38.40
2018-01-30T11:37:05.663Z,32.00
2018-01-30T11:39:32.282Z,28.00
2018-01-30T11:41:59.642Z,28.50
2018-01-30T11:44:26.274Z,28.70
2018-01-30T11:46:52.925Z,31.70
2018-01-30T11:49:20.258Z,32.20
2018-01-30T11:51:46.850Z,32.30
2018-01-30T11:54:13.523Z,34.30
2018-01-30T11:56:40.134Z,36.00
2018-01-30T11:59:06.718Z,37.80
2018-01-30T12:01:33.379Z,39.80
2018-01-30T12:03:59.998Z,41.20
2018-01-30T12:06:27.354Z,43.10
2018-01-30T12:08:54.015Z,43.00
2018-01-30T12:11:20.611Z,42.90
2018-01-30T12:13:47.218Z,42.70
2018-01-30T12:16:13.904Z,42.80
2018-01-30T12:18:40.563Z,43.60
2018-01-30T12:21:07.142Z,45.20
2018-01-30T12:23:33.734Z,46.00
2018-01-30T12:26:00.338Z,45.90
2018-01-30T12:28:27.637Z,46.90
2018-01-30T12:30:54.314Z,47.30
2018-01-30T12:33:21.853Z,47.20
2018-01-30T12:35:48.473Z,46.60
2018-01-30T12:38:15.039Z,46.60
2018-01-30T12:40:41.640Z,47.50
2018-01-30T12:43:08.258Z,47.40
2018-01-30T12:45:35.571Z,46.80
2018-01-30T12:48:02.206Z,46.80
2018-01-30T12:50:28.786Z,47.00
2018-01-30T12:52:56.194Z,46.60
2018-01-30T12:55:22.815Z,46.50
2018-01-30T12:57:49.426Z,46.90
2018-01-30T13:00:16.082Z,46.90
2018-01-30T13:02:42.690Z,46.60
2018-01-30T13:05:09.411Z,46.80
2018-01-30T13:07:36.018Z,46.50
2018-01-30T13:10:02.706Z,46.70
2018-01-30T13:12:29.359Z,46.30
2018-01-30T13:14:55.960Z,45.90
2018-01-30T13:17:22.609Z,45.90
2018-01-30T13:19:50.591Z,45.50
2018-01-30T13:22:17.215Z,45.40
2018-01-30T13:24:44.961Z,44.40
2018-01-30T13:27:11.556Z,44.40
2018-01-30T13:29:38.225Z,45.30
2018-01-30T13:32:05.119Z,44.00
2018-01-30T13:34:31.736Z,43.80
2018-01-30T13:36:58.319Z,42.80
2018-01-30T13:39:25.076Z,43.10
2018-01-30T13:41:51.662Z,43.40
2018-01-30T13:44:18.275Z,41.90
2018-01-30T13:46:44.953Z,40.70
2018-01-30T13:49:11.536Z,40.90
2018-01-30T13:51:38.242Z,40.90
2018-01-30T13:54:06.868Z,40.50
2018-01-30T13:56:34.194Z,40.90
2018-01-30T13:59:01.262Z,40.80
2018-01-30T14:01:27.848Z,40.80
2018-01-30T14:03:54.443Z,40.70
2018-01-30T14:06:21.099Z,40.90
2018-01-30T14:08:48.702Z,39.90
2018-01-30T14:11:15.318Z,40.00
2018-01-30T14:13:41.892Z,40.30
2018-01-30T14:16:08.497Z,40.50
2018-01-30T14:18:35.162Z,41.40
2018-01-30T14:21:01.747Z,41.00
2018-01-30T14:23:29.131Z,41.90
2018-01-30T14:25:55.752Z,41.90
2018-01-30T14:28:22.474Z,40.00
2018-01-30T14:30:49.814Z,40.90
2018-01-30T14:33:16.530Z,40.90
2018-01-30T14:35:43.104Z,41.20
2018-01-30T14:38:10.470Z,41.00
2018-01-30T14:40:37.170Z,41.00
2018-01-30T14:43:03.778Z,40.70
2018-01-30T14:45:30.374Z,40.50
2018-01-30T14:47:57.002Z,40.00
2018-01-30T14:50:24.351Z,39.10
2018-01-30T14:52:51.000Z,39.10
2018-01-30T14:55:17.609Z,40.70
2018-01-30T14:57:44.229Z,39.50
2018-01-30T15:00:10.904Z,39.60
2018-01-30T15:02:37.552Z,38.30
2018-01-30T15:05:04.925Z,38.90
2018-01-30T15:07:31.585Z,38.80
2018-01-30T15:09:58.312Z,38.60
2018-01-30T15:12:24.903Z,38.40
2018-01-30T15:14:51.584Z,38.40
2018-01-30T15:17:18.192Z,38.40
2018-01-30T15:19:45.510Z,38.20
2018-01-30T15:22:12.150Z,38.20
2018-01-30T15:24:38.747Z,38.80
2018-01-30T15:27:05.354Z,38.90
2018-01-30T15:29:32.741Z,40.40
2018-01-30T15:31:59.313Z,40.30
2018-01-30T15:34:26.010Z,40.40
2018-01-30T15:36:52.665Z,41.10
2018-01-30T15:39:19.255Z,42.10
2018-01-30T15:41:46.602Z,42.80
2018-01-30T15:44:13.234Z,42.70
2018-01-30T15:46:40.608Z,43.00
2018-01-30T15:49:07.344Z,42.90
2018-01-30T15:51:34.715Z,43.00
2018-01-30T15:54:01.343Z,43.00
2018-01-30T15:56:28.681Z,43.50
2018-01-30T15:58:55.294Z,43.40
2018-01-30T16:01:21.910Z,43.60
2018-01-30T16:03:48.534Z,43.80
2018-01-30T16:06:15.146Z,44.80
2018-01-30T16:08:42.528Z,44.70
2018-01-30T16:11:09.132Z,44.70
2018-01-30T16:13:36.518Z,44.80
2018-01-30T16:16:03.183Z,44.70
2018-01-30T16:18:29.791Z,44.90
2018-01-30T16:20:56.459Z,45.10
2018-01-30T16:23:23.096Z,44.60
2018-01-30T16:25:49.770Z,44.60
2018-01-30T16:28:16.357Z,44.50
2018-01-30T16:30:43.023Z,44.70
2018-01-30T16:33:09.657Z,45.10
2018-01-30T16:35:36.296Z,45.60
2018-01-30T16:38:02.919Z,46.00
2018-01-30T16:40:29.519Z,46.50
2018-01-30T16:42:56.090Z,46.30
2018-01-30T16:45:22.722Z,46.10
2018-01-30T16:47:49.341Z,46.50
2018-01-30T16:50:15.962Z,47.10
2018-01-30T16:52:42.653Z,47.00
2018-01-30T16:55:09.322Z,46.80
2018-01-30T16:57:35.944Z,47.20
2018-01-30T17:00:02.678Z,47.20
2018-01-30T17:02:29.332Z,47.40
2018-01-30T17:04:55.927Z,47.60
2018-01-30T17:07:22.575Z,47.10
2018-01-30T17:09:49.237Z,47.40
2018-01-30T17:12:16.639Z,48.00
2018-01-30T17:14:43.290Z,47.90
2018-01-30T17:17:09.979Z,47.80
2018-01-30T17:19:36.601Z,47.80
2018-01-30T17:22:03.288Z,48.00
2018-01-30T17:24:29.894Z,48.80
2018-01-30T17:26:56.521Z,48.40
2018-01-30T17:29:23.911Z,48.70
2018-01-30T17:31:50.553Z,48.60
2018-01-30T17:34:17.183Z,49.00
2018-01-30T17:36:43.806Z,48.90
2018-01-30T17:39:11.167Z,48.30
2018-01-30T17:41:37.751Z,48.20
2018-01-30T17:44:04.383Z,48.20
2018-01-30T17:46:30.987Z,48.70
2018-01-30T17:48:57.598Z,48.60
2018-01-30T17:51:24.986Z,48.90
2018-01-30T17:53:51.642Z,48.90
2018-01-30T17:56:18.265Z,48.80
2018-01-30T17:58:44.903Z,48.90
2018-01-30T18:01:11.717Z,48.80
2018-01-30T18:03:39.142Z,48.80
2018-01-30T18:06:05.792Z,48.80
2018-01-30T18:08:33.266Z,48.80
2018-01-30T18:10:59.924Z,48.80
2018-01-30T18:13:26.616Z,48.90
2018-01-30T18:15:53.217Z,48.80
2018-01-30T18:18:19.836Z,48.70
2018-01-30T18:20:46.481Z,48.70
2018-01-30T18:23:13.122Z,48.70
2018-01-30T18:25:39.796Z,47.90
2018-01-30T18:28:06.434Z,47.60
2018-01-30T18:30:33.855Z,46.80
2018-01-30T18:33:00.523Z,46.80
2018-01-30T18:35:27.192Z,46.70
2018-01-30T18:37:54.563Z,45.60
2018-01-30T18:40:21.949Z,45.00
2018-01-30T18:42:48.658Z,45.00
2018-01-30T18:45:15.284Z,44.80
2018-01-30T18:47:42.723Z,43.80
2018-01-30T18:50:09.316Z,43.70
2018-01-30T18:52:35.978Z,44.30
2018-01-30T18:55:03.390Z,44.20
2018-01-30T18:57:29.990Z,44.00
2018-01-30T18:59:56.680Z,43.80
2018-01-30T19:02:23.371Z,43.80
2018-01-30T19:04:50.022Z,43.80
2018-01-30T19:07:16.676Z,43.70
2018-01-30T19:09:43.304Z,44.00
2018-01-30T19:12:10.706Z,43.80
2018-01-30T19:14:38.082Z,44.40
2018-01-30T19:17:04.766Z,43.70
2018-01-30T19:19:31.378Z,43.30
2018-01-30T19:21:58.020Z,42.60
2018-01-30T19:24:24.653Z,42.70
2018-01-30T19:26:51.290Z,42.90
2018-01-30T19:29:17.881Z,42.90
2018-01-30T19:31:44.503Z,43.20
2018-01-30T19:34:11.187Z,43.10
2018-01-30T19:36:37.806Z,43.30
2018-01-30T19:39:04.464Z,43.60
2018-01-30T19:41:31.074Z,43.60
2018-01-30T19:43:57.742Z,42.90
2018-01-30T19:46:25.102Z,43.00
2018-01-30T19:48:51.770Z,43.10
2018-01-30T19:51:18.411Z,43.60
2018-01-30T19:53:45.394Z,43.50
2018-01-30T19:56:12.075Z,43.60
2018-01-30T19:58:39.432Z,43.60
2018-01-30T20:01:06.095Z,43.50
2018-01-30T20:03:32.768Z,43.50
2018-01-30T20:05:59.453Z,43.70
2018-01-30T20:08:26.079Z,43.50
2018-01-30T20:10:52.747Z,43.50
2018-01-30T20:13:19.435Z,43.60
2018-01-30T20:15:46.079Z,43.60
2018-01-30T20:18:12.726Z,43.50
2018-01-30T20:20:39.342Z,43.50
2018-01-30T20:23:05.950Z,43.50
2018-01-30T20:25:32.609Z,43.50
2018-01-30T20:27:59.200Z,43.40
2018-01-30T20:30:25.850Z,43.50
2018-01-30T20:32:52.422Z,43.40
2018-01-30T20:35:19.087Z,43.40
2018-01-30T20:37:46.475Z,42.40
2018-01-30T20:40:13.114Z,42.30
2018-01-30T20:42:39.723Z,43.00
2018-01-30T20:45:06.350Z,41.70
2018-01-30T20:47:33.771Z,41.60
2018-01-30T20:50:00.434Z,41.60
2018-01-30T20:52:27.126Z,42.50
2018-01-30T20:54:53.821Z,42.60
2018-01-30T20:57:20.446Z,42.50
2018-01-30T20:59:47.051Z,43.20
2018-01-30T21:02:13.718Z,43.30
2018-01-30T21:04:40.418Z,44.00
2018-01-30T21:07:07.051Z,44.40
2018-01-30T21:09:33.699Z,44.20
2018-01-30T21:12:00.353Z,44.40
2018-01-30T21:14:26.999Z,44.70
2018-01-30T21:16:53.610Z,44.60
2018-01-30T21:19:20.218Z,44.60
2018-01-30T21:21:46.926Z,44.50
2018-01-30T21:24:13.560Z,43.60
2018-01-30T21:26:40.157Z,43.50
2018-01-30T21:29:06.782Z,43.80
2018-01-30T21:31:33.520Z,44.50
2018-01-30T21:34:00.159Z,44.20
2018-01-30T21:36:26.774Z,44.10
2018-01-30T21:38:54.115Z,43.90
2018-01-30T21:41:20.780Z,43.80
2018-01-30T21:43:47.437Z,43.70
2018-01-30T21:46:14.058Z,43.20
2018-01-30T21:48:40.678Z,43.20
2018-01-30T21:51:08.057Z,43.10
2018-01-30T21:53:34.663Z,43.00
2018-01-30T21:56:01.251Z,43.50
2018-01-30T21:58:27.861Z,43.10
2018-01-30T22:00:55.264Z,43.10
2018-01-30T22:03:21.977Z,43.10
2018-01-30T22:05:48.614Z,41.50
2018-01-30T22:08:15.229Z,41.70
2018-01-30T22:10:41.945Z,41.80
2018-01-30T22:13:09.343Z,40.90
2018-01-30T22:15:35.889Z,40.90
2018-01-30T22:18:02.518Z,40.20
2018-01-30T22:20:29.093Z,40.10
2018-01-30T22:22:56.535Z,40.40
2018-01-30T22:25:23.914Z,41.60
2018-01-30T22:27:51.271Z,41.70
2018-01-30T22:30:17.894Z,41.70
2018-01-30T22:32:44.489Z,41.60
2018-01-30T22:35:11.145Z,41.70
2018-01-30T22:37:37.780Z,42.50
2018-01-30T22:40:04.410Z,42.90
2018-01-30T22:42:31.027Z,43.00
2018-01-30T22:44:57.675Z,42.90
